createdAt,value
2019-03-21T00:01:38.966Z,89.84
2019-03-21T00:04:12.484Z,90.25
2019-03-21T00:06:43.425Z,90.27
2019-03-21T00:09:17.030Z,90.85
2019-03-21T00:11:59.508Z,89.91
2019-03-21T00:14:39.581Z,90.23
2019-03-21T00:17:22.580Z,90.16
2019-03-21T00:19:53.560Z,90.15
2019-03-21T00:22:27.491Z,90.53
2019-03-21T00:24:58.494Z,89.87
2019-03-21T00:27:29.388Z,90.00
2019-03-21T00:30:00.379Z,91.76
2019-03-21T00:32:31.220Z,92.09
2019-03-21T00:35:02.125Z,91.59
2019-03-21T00:37:33.135Z,91.48
2019-03-21T00:40:06.372Z,92.43
2019-03-21T00:42:37.255Z,93.59
2019-03-21T00:45:11.508Z,93.40
2019-03-21T00:47:42.790Z,93.37
2019-03-21T00:50:16.715Z,93.43
2019-03-21T00:52:49.870Z,93.08
2019-03-21T00:55:21.389Z,92.73
2019-03-21T00:57:52.344Z,92.17
2019-03-21T01:00:32.231Z,92.24
2019-03-21T01:03:03.831Z,92.24
2019-03-21T01:05:34.916Z,92.48
2019-03-21T01:08:05.875Z,92.55
2019-03-21T01:10:36.824Z,92.44
2019-03-21T01:13:07.773Z,92.89
2019-03-21T01:15:38.691Z,92.86
2019-03-21T01:18:09.721Z,92.61
2019-03-21T01:20:40.772Z,93.17
2019-03-21T01:23:11.656Z,93.55
2019-03-21T01:26:00.497Z,92.73
2019-03-21T01:28:31.610Z,92.76
2019-03-21T01:31:02.510Z,93.48
2019-03-21T01:33:33.412Z,93.26
2019-03-21T01:36:06.325Z,93.17
2019-03-21T01:38:37.360Z,93.11
2019-03-21T01:41:16.858Z,93.39
2019-03-21T01:43:47.789Z,92.95
2019-03-21T01:46:21.181Z,93.04
2019-03-21T01:48:52.077Z,93.46
2019-03-21T01:51:22.973Z,93.98
2019-03-21T01:53:55.327Z,93.70
2019-03-21T01:56:28.163Z,94.41
2019-03-21T01:58:59.195Z,95.05
2019-03-21T02:01:30.183Z,94.85
2019-03-21T02:04:01.075Z,94.92
2019-03-21T02:06:32.060Z,95.08
2019-03-21T02:09:04.691Z,96.24
2019-03-21T02:11:35.665Z,97.36
2019-03-21T02:14:06.671Z,97.69
2019-03-21T02:16:37.560Z,97.22
2019-03-21T02:19:08.663Z,96.96
2019-03-21T02:21:39.899Z,96.60
2019-03-21T02:24:10.851Z,96.68
2019-03-21T02:26:41.888Z,96.83
2019-03-21T02:29:12.868Z,96.77
2019-03-21T02:31:43.895Z,97.09
2019-03-21T02:34:14.845Z,97.54
2019-03-21T02:36:45.985Z,97.61
2019-03-21T02:39:16.917Z,97.72
2019-03-21T02:41:48.040Z,97.96
2019-03-21T02:44:19.108Z,97.96
2019-03-21T02:46:50.107Z,97.91
2019-03-21T02:49:21.169Z,97.82
2019-03-21T02:51:52.161Z,98.11
2019-03-21T02:54:23.029Z,98.39
2019-03-21T02:56:54.065Z,98.79
2019-03-21T02:59:25.005Z,98.86
2019-03-21T03:01:56.140Z,98.47
2019-03-21T03:04:27.062Z,98.52
2019-03-21T03:06:59.724Z,98.75
2019-03-21T03:09:30.542Z,98.62
2019-03-21T03:12:01.591Z,98.92
2019-03-21T03:14:42.897Z,98.96
2019-03-21T03:17:13.823Z,99.02
2019-03-21T03:19:44.737Z,99.06
2019-03-21T03:22:16.117Z,98.61
2019-03-21T03:24:47.004Z,98.32
2019-03-21T03:27:17.941Z,98.78
2019-03-21T03:29:48.869Z,98.78
2019-03-21T03:32:19.908Z,98.58
2019-03-21T03:34:51.179Z,98.85
2019-03-21T03:37:22.246Z,99.31
2019-03-21T03:39:53.228Z,99.56
2019-03-21T03:42:24.481Z,99.36
2019-03-21T03:45:03.227Z,99.98
2019-03-21T03:47:34.169Z,99.58
2019-03-21T03:50:08.441Z,99.31
2019-03-21T03:52:39.503Z,99.53
2019-03-21T03:55:15.938Z,100.00
2019-03-21T03:57:49.077Z,100.00
2019-03-21T04:00:22.747Z,100.00
2019-03-21T04:02:55.882Z,100.00
2019-03-21T04:05:26.734Z,100.00
2019-03-21T04:07:57.629Z,100.00
2019-03-21T04:10:40.021Z,100.00
2019-03-21T04:13:11.129Z,100.00
2019-03-21T04:15:52.664Z,100.00
2019-03-21T04:18:15.717Z,100.00
2019-03-21T04:21:02.329Z,100.00
2019-03-21T04:23:33.237Z,100.00
2019-03-21T04:26:09.674Z,100.00
2019-03-21T04:28:41.765Z,100.00
2019-03-21T04:31:12.812Z,100.00
2019-03-21T04:33:45.582Z,100.00
2019-03-21T04:36:16.496Z,100.00
2019-03-21T04:38:47.403Z,100.00
2019-03-21T04:41:18.258Z,100.00
2019-03-21T04:43:49.372Z,100.00
2019-03-21T04:46:20.350Z,100.00
2019-03-21T04:48:51.256Z,100.00
2019-03-21T04:51:22.158Z,100.00
2019-03-21T04:53:53.609Z,100.00
2019-03-21T04:56:24.602Z,100.00
2019-03-21T04:58:55.616Z,100.00
2019-03-21T05:01:26.522Z,100.00
2019-03-21T05:03:57.694Z,100.00
2019-03-21T05:06:28.680Z,100.00
2019-03-21T05:08:59.580Z,100.00
2019-03-21T05:11:30.655Z,100.00
2019-03-21T05:14:01.592Z,100.00
2019-03-21T05:16:32.490Z,100.00
2019-03-21T05:19:03.477Z,100.00
2019-03-21T05:21:34.513Z,100.00
2019-03-21T05:24:05.557Z,100.00
2019-03-21T05:26:37.064Z,100.00
2019-03-21T05:29:07.941Z,100.00
2019-03-21T05:31:38.850Z,100.00
2019-03-21T05:34:09.817Z,100.00
2019-03-21T05:36:41.135Z,100.00
2019-03-21T05:39:12.439Z,100.00
2019-03-21T05:41:43.347Z,100.00
2019-03-21T05:44:19.943Z,100.00
2019-03-21T05:46:50.899Z,100.00
2019-03-21T05:49:22.003Z,100.00
2019-03-21T05:51:52.996Z,100.00
2019-03-21T05:54:23.906Z,100.00
2019-03-21T05:56:55.611Z,100.00
2019-03-21T05:59:26.870Z,100.00
2019-03-21T06:01:57.827Z,100.00
2019-03-21T06:04:28.912Z,100.00
2019-03-21T06:07:08.720Z,100.00
2019-03-21T06:09:39.747Z,99.75
2019-03-21T06:12:10.703Z,97.13
2019-03-21T06:14:44.774Z,94.67
2019-03-21T06:17:15.738Z,93.63
2019-03-21T06:19:59.050Z,91.82
2019-03-21T06:22:52.472Z,89.29
2019-03-21T06:25:29.276Z,87.31
2019-03-21T06:28:00.149Z,86.71
2019-03-21T06:30:31.037Z,86.81
2019-03-21T06:33:01.995Z,86.55
2019-03-21T06:35:33.127Z,87.08
2019-03-21T06:38:04.149Z,87.01
2019-03-21T06:40:35.101Z,86.78
2019-03-21T06:43:06.089Z,85.97
2019-03-21T06:45:47.557Z,85.54
2019-03-21T06:48:09.761Z,85.29
2019-03-21T06:50:40.679Z,84.42
2019-03-21T06:53:11.576Z,84.12
2019-03-21T06:55:44.887Z,83.99
2019-03-21T06:58:16.205Z,82.70
2019-03-21T07:00:47.149Z,82.31
2019-03-21T07:03:18.168Z,82.80
2019-03-21T07:05:49.265Z,81.37
2019-03-21T07:08:20.411Z,80.56
2019-03-21T07:10:51.507Z,80.34
2019-03-21T07:13:22.757Z,78.77
2019-03-21T07:15:53.708Z,78.00
2019-03-21T07:18:24.732Z,77.46
2019-03-21T07:20:55.677Z,75.50
2019-03-21T07:23:26.715Z,73.34
2019-03-21T07:25:57.860Z,72.07
2019-03-21T07:28:28.837Z,71.76
2019-03-21T07:30:59.793Z,69.68
2019-03-21T07:33:30.853Z,68.87
2019-03-21T07:36:01.758Z,68.02
2019-03-21T07:38:32.905Z,66.82
2019-03-21T07:41:03.900Z,66.40
2019-03-21T07:43:34.928Z,66.31
2019-03-21T07:46:05.973Z,64.54
2019-03-21T07:48:36.873Z,64.66
2019-03-21T07:51:07.917Z,64.52
2019-03-21T07:53:38.788Z,63.08
2019-03-21T07:56:09.737Z,62.08
2019-03-21T07:58:40.785Z,61.09
2019-03-21T08:01:11.817Z,60.84
2019-03-21T08:03:42.719Z,59.96
2019-03-21T08:06:13.687Z,59.57
2019-03-21T08:08:44.566Z,57.67
2019-03-21T08:11:15.521Z,57.66
2019-03-21T08:13:46.479Z,56.92
2019-03-21T08:16:17.379Z,56.65
2019-03-21T08:18:48.327Z,54.75
2019-03-21T08:21:21.720Z,54.50
2019-03-21T08:23:52.973Z,54.28
2019-03-21T08:26:23.992Z,52.68
2019-03-21T08:28:55.015Z,52.29
2019-03-21T08:31:25.995Z,51.13
2019-03-21T08:33:57.052Z,50.78
2019-03-21T08:36:28.115Z,50.43
2019-03-21T08:38:59.011Z,49.31
2019-03-21T08:41:30.155Z,49.00
2019-03-21T08:44:01.055Z,47.68
2019-03-21T08:46:32.052Z,47.88
2019-03-21T08:49:03.138Z,47.25
2019-03-21T08:51:34.181Z,47.17
2019-03-21T08:54:05.216Z,45.33
2019-03-21T08:56:36.244Z,45.02
2019-03-21T08:59:07.122Z,43.35
2019-03-21T09:01:38.159Z,41.20
2019-03-21T09:04:09.139Z,40.09
2019-03-21T09:06:40.127Z,39.89
2019-03-21T09:09:11.061Z,38.58
2019-03-21T09:11:42.320Z,37.85
2019-03-21T09:14:13.590Z,36.93
2019-03-21T09:16:44.969Z,37.36
2019-03-21T09:19:15.982Z,34.79
2019-03-21T09:21:46.930Z,33.90
2019-03-21T09:24:18.139Z,32.47
2019-03-21T09:26:49.106Z,32.35
2019-03-21T09:29:20.096Z,32.74
2019-03-21T09:31:51.122Z,32.31
2019-03-21T09:34:22.182Z,29.85
2019-03-21T09:36:53.190Z,29.87
2019-03-21T09:39:24.267Z,28.78
2019-03-21T09:41:55.152Z,29.91
2019-03-21T09:44:28.150Z,29.76
2019-03-21T09:46:59.059Z,29.02
2019-03-21T09:49:30.048Z,29.55
2019-03-21T09:52:00.971Z,29.21
2019-03-21T09:54:32.654Z,27.67
2019-03-21T09:57:03.659Z,28.63
2019-03-21T09:59:34.641Z,27.40
2019-03-21T10:02:05.657Z,26.28
2019-03-21T10:04:36.600Z,26.24
2019-03-21T10:07:07.559Z,26.72
2019-03-21T10:09:38.706Z,27.33
2019-03-21T10:12:09.726Z,26.30
2019-03-21T10:14:40.780Z,26.68
2019-03-21T10:17:11.836Z,26.68
2019-03-21T10:19:42.773Z,27.02
2019-03-21T10:22:13.808Z,26.01
2019-03-21T10:24:45.107Z,25.64
2019-03-21T10:27:16.191Z,28.02
2019-03-21T10:29:47.133Z,28.02
2019-03-21T10:32:18.337Z,26.54
2019-03-21T10:34:49.381Z,26.55
2019-03-21T10:37:20.419Z,26.71
2019-03-21T10:39:51.306Z,26.71
2019-03-21T10:42:22.664Z,26.01
2019-03-21T10:44:53.540Z,24.46
2019-03-21T10:47:24.557Z,24.52
2019-03-21T10:49:55.667Z,25.20
2019-03-21T10:52:26.672Z,25.44
2019-03-21T10:54:57.743Z,23.73
2019-03-21T10:57:28.597Z,22.71
2019-03-21T11:00:01.818Z,21.84
2019-03-21T11:02:32.128Z,22.32
2019-03-21T11:05:03.085Z,21.69
2019-03-21T11:07:34.077Z,21.27
2019-03-21T11:10:06.859Z,20.29
2019-03-21T11:12:37.801Z,21.75
2019-03-21T11:15:08.934Z,20.89
2019-03-21T11:17:39.887Z,21.03
2019-03-21T11:20:12.626Z,21.07
2019-03-21T11:22:43.604Z,20.45
2019-03-21T11:25:14.660Z,20.44
2019-03-21T11:27:45.607Z,19.59
2019-03-21T11:30:19.627Z,20.24
2019-03-21T11:32:50.737Z,20.34
2019-03-21T11:35:21.815Z,20.27
2019-03-21T11:37:52.831Z,19.48
2019-03-21T11:40:23.855Z,19.99
2019-03-21T11:42:54.910Z,18.64
2019-03-21T11:45:25.942Z,18.92
2019-03-21T11:47:59.562Z,18.68
2019-03-21T11:50:29.617Z,18.51
2019-03-21T11:53:00.589Z,18.51
2019-03-21T11:55:31.644Z,18.23
2019-03-21T11:58:02.581Z,18.02
2019-03-21T12:00:43.156Z,18.38
2019-03-21T12:03:06.519Z,17.75
2019-03-21T12:05:37.590Z,18.03
2019-03-21T12:08:08.529Z,17.26
2019-03-21T12:10:39.574Z,16.40
2019-03-21T12:13:10.515Z,16.50
2019-03-21T12:15:41.542Z,15.46
2019-03-21T12:18:12.831Z,14.95
2019-03-21T12:20:43.796Z,15.24
2019-03-21T12:23:14.673Z,16.85
2019-03-21T12:25:45.671Z,16.69
2019-03-21T12:28:16.569Z,17.48
2019-03-21T12:30:47.686Z,18.53
2019-03-21T12:33:18.611Z,19.13
2019-03-21T12:35:49.500Z,19.38
2019-03-21T12:38:20.458Z,18.76
2019-03-21T12:40:51.402Z,17.74
2019-03-21T12:43:22.549Z,16.87
2019-03-21T12:45:54.109Z,16.56
2019-03-21T12:48:25.104Z,16.59
2019-03-21T12:50:56.191Z,16.07
2019-03-21T12:53:27.326Z,15.79
2019-03-21T12:55:58.410Z,15.79
2019-03-21T12:58:29.512Z,16.23
2019-03-21T13:01:00.474Z,16.23
2019-03-21T13:03:31.499Z,16.24
2019-03-21T13:06:02.760Z,17.29
2019-03-21T13:08:34.294Z,15.28
2019-03-21T13:11:05.527Z,14.99
2019-03-21T13:13:36.509Z,15.34
2019-03-21T13:16:07.574Z,17.18
2019-03-21T13:18:38.672Z,17.43
2019-03-21T13:21:09.691Z,17.07
2019-03-21T13:23:40.702Z,17.01
2019-03-21T13:26:11.726Z,17.01
2019-03-21T13:28:42.888Z,15.77
2019-03-21T13:31:13.804Z,15.77
2019-03-21T13:33:44.802Z,16.13
2019-03-21T13:36:15.828Z,15.92
2019-03-21T13:38:46.796Z,15.92
2019-03-21T13:41:19.318Z,14.98
2019-03-21T13:43:50.504Z,15.96
2019-03-21T13:46:23.217Z,16.14
2019-03-21T13:48:57.840Z,16.12
2019-03-21T13:51:29.214Z,16.13
2019-03-21T13:54:01.884Z,16.43
2019-03-21T13:56:37.952Z,17.47
2019-03-21T13:59:06.298Z,15.73
2019-03-21T14:01:37.364Z,16.17
2019-03-21T14:04:08.792Z,16.30
2019-03-21T14:06:40.022Z,16.28
2019-03-21T14:09:11.044Z,16.66
2019-03-21T14:11:42.069Z,16.66
2019-03-21T14:14:13.150Z,15.37
2019-03-21T14:16:44.312Z,16.57
2019-03-21T14:19:18.358Z,16.57
2019-03-21T14:21:49.334Z,16.80
2019-03-21T14:24:20.515Z,16.17
2019-03-21T14:26:51.542Z,16.17
2019-03-21T14:29:22.596Z,16.78
2019-03-21T14:31:53.628Z,16.29
2019-03-21T14:34:24.734Z,16.28
2019-03-21T14:36:56.899Z,16.28
2019-03-21T14:39:27.912Z,16.99
2019-03-21T14:41:59.016Z,16.38
2019-03-21T14:44:30.392Z,15.59
2019-03-21T14:47:02.338Z,16.40
2019-03-21T14:50:13.099Z,15.91
2019-03-21T14:52:44.689Z,16.38
2019-03-21T14:55:21.618Z,16.19
2019-03-21T14:57:56.959Z,16.41
2019-03-21T15:00:28.094Z,16.22
2019-03-21T15:02:59.212Z,16.98
2019-03-21T15:05:30.155Z,17.47
2019-03-21T15:08:05.748Z,17.75
2019-03-21T15:10:38.623Z,17.23
2019-03-21T15:13:09.595Z,17.91
2019-03-21T15:15:40.555Z,17.84
2019-03-21T15:18:11.637Z,17.47
2019-03-21T15:20:42.686Z,17.43
2019-03-21T15:23:13.781Z,16.44
2019-03-21T15:25:44.912Z,17.55
2019-03-21T15:28:16.008Z,17.93
2019-03-21T15:30:47.103Z,17.40
2019-03-21T15:33:18.444Z,17.08
2019-03-21T15:35:49.394Z,16.66
2019-03-21T15:38:20.345Z,17.10
2019-03-21T15:40:51.521Z,17.59
2019-03-21T15:43:22.517Z,17.41
2019-03-21T15:45:53.516Z,17.60
2019-03-21T15:48:24.647Z,17.98
2019-03-21T15:51:04.274Z,18.60
2019-03-21T15:53:28.392Z,18.30
2019-03-21T15:55:59.387Z,18.73
2019-03-21T15:58:30.408Z,19.15
2019-03-21T16:01:01.784Z,19.29
2019-03-21T16:03:32.835Z,19.75
2019-03-21T16:06:03.963Z,20.05
2019-03-21T16:08:35.038Z,20.12
2019-03-21T16:11:09.299Z,20.76
2019-03-21T16:13:40.478Z,20.69
2019-03-21T16:16:14.317Z,21.09
2019-03-21T16:18:45.739Z,21.04
2019-03-21T16:21:16.756Z,21.35
2019-03-21T16:23:47.703Z,21.36
2019-03-21T16:26:18.701Z,21.66
2019-03-21T16:28:49.638Z,22.45
2019-03-21T16:31:20.605Z,23.29
2019-03-21T16:33:51.477Z,23.29
2019-03-21T16:36:22.584Z,23.61
2019-03-21T16:38:53.661Z,23.85
2019-03-21T16:41:24.687Z,24.05
2019-03-21T16:43:55.852Z,24.67
2019-03-21T16:46:26.841Z,24.80
2019-03-21T16:48:57.698Z,25.31
2019-03-21T16:51:31.002Z,25.86
2019-03-21T16:54:01.968Z,26.13
2019-03-21T16:56:32.948Z,26.64
2019-03-21T16:59:03.977Z,26.92
2019-03-21T17:01:34.951Z,27.15
2019-03-21T17:04:06.127Z,27.12
2019-03-21T17:06:37.528Z,27.31
2019-03-21T17:09:10.104Z,27.83
2019-03-21T17:11:41.713Z,28.03
2019-03-21T17:14:13.891Z,28.14
2019-03-21T17:16:45.098Z,28.76
2019-03-21T17:19:16.131Z,29.76
2019-03-21T17:21:47.075Z,30.06
2019-03-21T17:24:28.712Z,30.50
2019-03-21T17:26:50.846Z,30.98
2019-03-21T17:29:22.172Z,31.45
2019-03-21T17:31:53.143Z,32.07
2019-03-21T17:34:27.221Z,32.64
2019-03-21T17:36:58.293Z,32.51
2019-03-21T17:39:29.323Z,33.42
2019-03-21T17:42:01.886Z,33.36
2019-03-21T17:44:33.005Z,33.08
2019-03-21T17:47:04.183Z,33.88
2019-03-21T17:49:35.163Z,33.71
2019-03-21T17:52:06.749Z,34.64
2019-03-21T17:54:41.734Z,34.82
2019-03-21T17:57:46.250Z,34.68
2019-03-21T18:00:16.919Z,34.87
2019-03-21T18:02:48.711Z,35.04
2019-03-21T18:05:20.065Z,35.30
2019-03-21T18:07:51.244Z,35.54
2019-03-21T18:10:34.980Z,35.46
2019-03-21T18:13:06.212Z,35.53
2019-03-21T18:15:37.238Z,35.94
2019-03-21T18:18:08.188Z,35.93
2019-03-21T18:20:40.212Z,36.43
2019-03-21T18:23:11.702Z,36.09
2019-03-21T18:25:42.735Z,36.55
2019-03-21T18:28:13.688Z,36.81
2019-03-21T18:30:44.585Z,36.92
2019-03-21T18:33:15.542Z,37.17
2019-03-21T18:35:46.785Z,37.71
2019-03-21T18:38:17.808Z,37.72
2019-03-21T18:40:48.741Z,38.04
2019-03-21T18:43:19.836Z,38.65
2019-03-21T18:45:50.800Z,38.83
2019-03-21T18:48:22.016Z,38.88
2019-03-21T18:50:52.973Z,39.27
2019-03-21T18:53:24.465Z,39.91
2019-03-21T18:55:55.973Z,41.11
2019-03-21T18:58:27.334Z,42.31
2019-03-21T19:01:01.106Z,42.13
2019-03-21T19:03:32.048Z,42.51
2019-03-21T19:06:03.524Z,43.55
2019-03-21T19:08:34.637Z,44.29
2019-03-21T19:11:26.425Z,46.50
2019-03-21T19:13:57.937Z,45.70
2019-03-21T19:16:32.081Z,46.58
2019-03-21T19:19:01.622Z,46.34
2019-03-21T19:21:32.919Z,47.70
2019-03-21T19:24:04.422Z,47.70
2019-03-21T19:26:38.729Z,47.74
2019-03-21T19:29:10.101Z,47.58
2019-03-21T19:31:41.897Z,48.46
2019-03-21T19:34:13.082Z,50.08
2019-03-21T19:36:44.302Z,50.55
2019-03-21T19:39:15.230Z,50.13
2019-03-21T19:41:46.364Z,49.86
2019-03-21T19:44:21.089Z,50.57
2019-03-21T19:46:52.543Z,50.49
2019-03-21T19:49:23.401Z,51.59
2019-03-21T19:51:55.113Z,51.94
2019-03-21T19:54:26.297Z,52.54
2019-03-21T19:56:58.641Z,52.47
2019-03-21T19:59:29.939Z,52.14
2019-03-21T20:02:00.992Z,52.51
2019-03-21T20:04:33.870Z,53.53
2019-03-21T20:07:05.579Z,52.78
2019-03-21T20:09:36.939Z,52.57
2019-03-21T20:12:08.152Z,53.99
2019-03-21T20:14:39.203Z,55.22
2019-03-21T20:17:10.368Z,55.06
2019-03-21T20:19:41.337Z,56.18
2019-03-21T20:22:12.457Z,56.71
2019-03-21T20:24:43.519Z,56.64
2019-03-21T20:27:14.457Z,57.44
2019-03-21T20:29:45.365Z,58.19
2019-03-21T20:32:20.751Z,58.48
2019-03-21T20:34:49.105Z,58.98
2019-03-21T20:37:20.221Z,58.11
2019-03-21T20:39:51.253Z,59.11
2019-03-21T20:42:22.297Z,58.78
2019-03-21T20:44:53.269Z,58.55
2019-03-21T20:47:24.281Z,59.05
2019-03-21T20:49:55.246Z,59.61
2019-03-21T20:52:26.311Z,61.17
2019-03-21T20:54:57.295Z,60.71
2019-03-21T20:57:29.926Z,61.27
2019-03-21T21:00:00.933Z,61.41
2019-03-21T21:02:31.962Z,60.82
2019-03-21T21:05:02.902Z,61.44
2019-03-21T21:07:34.067Z,61.41
2019-03-21T21:10:07.381Z,62.05
2019-03-21T21:12:38.377Z,62.18
2019-03-21T21:15:11.786Z,62.57
2019-03-21T21:17:43.239Z,63.86
2019-03-21T21:20:16.388Z,64.11
2019-03-21T21:22:47.453Z,63.90
2019-03-21T21:25:18.469Z,64.09
2019-03-21T21:27:50.346Z,66.33
2019-03-21T21:30:22.530Z,66.43
2019-03-21T21:33:01.250Z,65.75
2019-03-21T21:35:32.268Z,66.92
2019-03-21T21:38:03.208Z,66.32
2019-03-21T21:40:34.163Z,67.00
2019-03-21T21:43:05.283Z,67.99
2019-03-21T21:45:36.534Z,68.28
2019-03-21T21:48:07.488Z,69.83
2019-03-21T21:50:38.476Z,70.41
2019-03-21T21:53:09.481Z,69.88
2019-03-21T21:55:40.735Z,70.46
2019-03-21T21:58:11.810Z,70.89
2019-03-21T22:00:42.911Z,71.16
2019-03-21T22:03:13.800Z,70.01
2019-03-21T22:05:44.823Z,69.29
2019-03-21T22:08:15.922Z,69.66
2019-03-21T22:10:46.880Z,70.79
2019-03-21T22:13:17.810Z,71.30
2019-03-21T22:15:48.769Z,71.27
2019-03-21T22:18:19.672Z,71.64
2019-03-21T22:20:50.773Z,71.44
2019-03-21T22:23:21.746Z,71.99
2019-03-21T22:25:52.641Z,73.89
2019-03-21T22:28:23.538Z,73.84
2019-03-21T22:30:54.781Z,74.75
2019-03-21T22:33:25.734Z,74.92
2019-03-21T22:35:56.749Z,75.30
2019-03-21T22:38:27.741Z,75.14
2019-03-21T22:40:58.853Z,74.63
2019-03-21T22:43:29.798Z,75.03
2019-03-21T22:46:00.714Z,76.56
2019-03-21T22:48:31.647Z,76.46
2019-03-21T22:51:02.599Z,76.01
2019-03-21T22:53:33.750Z,77.90
2019-03-21T22:56:04.768Z,78.16
2019-03-21T22:58:36.642Z,77.98
2019-03-21T23:01:07.812Z,78.20
2019-03-21T23:03:38.748Z,78.48
2019-03-21T23:06:09.623Z,79.66
2019-03-21T23:08:40.551Z,78.92
2019-03-21T23:11:11.453Z,78.73
2019-03-21T23:13:42.381Z,78.70
2019-03-21T23:16:13.280Z,78.21
2019-03-21T23:18:44.228Z,80.78
2019-03-21T23:21:15.121Z,81.05
2019-03-21T23:23:45.995Z,80.66
2019-03-21T23:26:16.917Z,80.95
2019-03-21T23:28:47.816Z,81.39
2019-03-21T23:31:18.678Z,82.16
2019-03-21T23:33:49.898Z,81.64
2019-03-21T23:36:20.916Z,81.60
2019-03-21T23:38:51.816Z,81.75
2019-03-21T23:41:22.812Z,82.24
2019-03-21T23:43:53.713Z,82.13
2019-03-21T23:46:24.669Z,82.36
2019-03-21T23:48:55.559Z,82.42
2019-03-21T23:51:26.678Z,82.33
2019-03-21T23:53:57.556Z,82.73
2019-03-21T23:56:28.779Z,82.79
2019-03-21T23:58:59.746Z,84.20
